sensor_id;sensor_type;location;lat;lon;timestamp;temperature;humidity
39675;DHT22;27790;50.840;4.386;2024-03-02T00:02:24;8.40;99.90
39675;DHT22;27790;50.840;4.386;2024-03-02T00:04:50;8.50;99.90
39675;DHT22;27790;50.840;4.386;2024-03-02T00:07:16;8.50;99.90
39675;DHT22;27790;50.840;4.386;2024-03-02T00:09:42;8.50;99.90
39675;DHT22;27790;50.840;4.386;2024-03-02T00:12:08;8.60;99.90
39675;DHT22;27790;50.840;4.386;2024-03-02T00:14:33;8.60;99.90
39675;DHT22;27790;50.840;4.386;2024-03-02T00:16:59;8.70;99.90
39675;DHT22;27790;50.840;4.386;2024-03-02T00:19:25;8.60;99.90
39675;DHT22;27790;50.840;4.386;2024-03-02T00:21:50;8.30;99.90
39675;DHT22;27790;50.840;4.386;2024-03-02T00:24:31;8.30;99.90
39675;DHT22;27790;50.840;4.386;2024-03-02T00:26:57;8.30;99.90
39675;DHT22;27790;50.840;4.386;2024-03-02T00:29:23;8.20;99.90
39675;DHT22;27790;50.840;4.386;2024-03-02T00:31:49;8.30;99.90
39675;DHT22;27790;50.840;4.386;2024-03-02T00:34:15;8.40;99.90
39675;DHT22;27790;50.840;4.386;2024-03-02T00:36:42;8.50;99.90
39675;DHT22;27790;50.840;4.386;2024-03-02T00:39:08;8.50;99.90
39675;DHT22;27790;50.840;4.386;2024-03-02T00:41:34;8.50;99.90
39675;DHT22;27790;50.840;4.386;2024-03-02T00:44:01;8.30;99.90
39675;DHT22;27790;50.840;4.386;2024-03-02T00:46:36;8.30;99.90
39675;DHT22;27790;50.840;4.386;2024-03-02T00:51:38;8.10;99.90
39675;DHT22;27790;50.840;4.386;2024-03-02T00:54:07;8.30;99.90
39675;DHT22;27790;50.840;4.386;2024-03-02T00:56:33;8.30;99.90
39675;DHT22;27790;50.840;4.386;2024-03-02T00:59:00;8.40;99.90
39675;DHT22;27790;50.840;4.386;2024-03-02T01:01:26;8.40;99.90
39675;DHT22;27790;50.840;4.386;2024-03-02T01:03:52;8.50;99.90
39675;DHT22;27790;50.840;4.386;2024-03-02T01:06:18;8.60;99.90
39675;DHT22;27790;50.840;4.386;2024-03-02T01:08:43;8.60;99.90
39675;DHT22;27790;50.840;4.386;2024-03-02T01:11:09;8.70;99.90
39675;DHT22;27790;50.840;4.386;2024-03-02T01:13:35;8.70;99.90
39675;DHT22;27790;50.840;4.386;2024-03-02T01:16:01;8.60;99.90
39675;DHT22;27790;50.840;4.386;2024-03-02T01:18:27;8.60;99.90
39675;DHT22;27790;50.840;4.386;2024-03-02T01:20:53;8.40;99.90
39675;DHT22;27790;50.840;4.386;2024-03-02T01:23:21;8.50;99.90
39675;DHT22;27790;50.840;4.386;2024-03-02T01:25:47;8.60;99.90
39675;DHT22;27790;50.840;4.386;2024-03-02T01:28:13;8.40;99.90
39675;DHT22;27790;50.840;4.386;2024-03-02T01:30:39;8.30;99.90
39675;DHT22;27790;50.840;4.386;2024-03-02T01:33:04;8.30;99.90
39675;DHT22;27790;50.840;4.386;2024-03-02T01:35:31;8.30;99.90
39675;DHT22;27790;50.840;4.386;2024-03-02T01:37:57;8.30;99.90
39675;DHT22;27790;50.840;4.386;2024-03-02T01:40:22;8.30;99.90
39675;DHT22;27790;50.840;4.386;2024-03-02T01:42:51;8.30;99.90
39675;DHT22;27790;50.840;4.386;2024-03-02T01:45:17;8.30;99.90
39675;DHT22;27790;50.840;4.386;2024-03-02T01:47:43;8.30;99.90
39675;DHT22;27790;50.840;4.386;2024-03-02T01:50:10;8.20;99.90
39675;DHT22;27790;50.840;4.386;2024-03-02T01:52:36;8.00;99.90
39675;DHT22;27790;50.840;4.386;2024-03-02T01:55:03;8.10;99.90
39675;DHT22;27790;50.840;4.386;2024-03-02T01:57:29;8.30;99.90
39675;DHT22;27790;50.840;4.386;2024-03-02T01:59:55;8.30;99.90
39675;DHT22;27790;50.840;4.386;2024-03-02T02:02:20;8.40;99.90
39675;DHT22;27790;50.840;4.386;2024-03-02T02:04:46;8.40;99.90
39675;DHT22;27790;50.840;4.386;2024-03-02T02:07:12;8.30;99.90
39675;DHT22;27790;50.840;4.386;2024-03-02T02:09:42;8.20;99.90
39675;DHT22;27790;50.840;4.386;2024-03-02T02:12:09;8.30;99.90
39675;DHT22;27790;50.840;4.386;2024-03-02T02:14:35;8.20;99.90
39675;DHT22;27790;50.840;4.386;2024-03-02T02:17:00;8.30;99.90
39675;DHT22;27790;50.840;4.386;2024-03-02T02:19:26;8.40;99.90
39675;DHT22;27790;50.840;4.386;2024-03-02T02:21:51;8.40;99.90
39675;DHT22;27790;50.840;4.386;2024-03-02T02:24:17;8.50;99.90
39675;DHT22;27790;50.840;4.386;2024-03-02T02:26:43;8.60;99.90
39675;DHT22;27790;50.840;4.386;2024-03-02T02:29:08;8.70;99.90
39675;DHT22;27790;50.840;4.386;2024-03-02T02:31:38;8.70;99.90
39675;DHT22;27790;50.840;4.386;2024-03-02T02:34:04;8.70;99.90
39675;DHT22;27790;50.840;4.386;2024-03-02T02:36:30;8.70;99.90
39675;DHT22;27790;50.840;4.386;2024-03-02T02:38:56;8.70;99.90
39675;DHT22;27790;50.840;4.386;2024-03-02T02:41:21;8.70;99.90
39675;DHT22;27790;50.840;4.386;2024-03-02T02:43:47;8.80;99.90
39675;DHT22;27790;50.840;4.386;2024-03-02T02:46:12;8.50;99.90
39675;DHT22;27790;50.840;4.386;2024-03-02T02:48:38;8.50;99.90
39675;DHT22;27790;50.840;4.386;2024-03-02T02:51:03;8.40;99.90
39675;DHT22;27790;50.840;4.386;2024-03-02T02:53:29;8.40;99.90
39675;DHT22;27790;50.840;4.386;2024-03-02T02:55:54;8.30;99.90
39675;DHT22;27790;50.840;4.386;2024-03-02T02:58:20;8.20;99.90
39675;DHT22;27790;50.840;4.386;2024-03-02T03:00:46;8.20;99.90
39675;DHT22;27790;50.840;4.386;2024-03-02T03:03:12;8.20;99.90
39675;DHT22;27790;50.840;4.386;2024-03-02T03:05:37;8.00;99.90
39675;DHT22;27790;50.840;4.386;2024-03-02T03:08:03;7.90;99.90
39675;DHT22;27790;50.840;4.386;2024-03-02T03:10:28;7.70;99.90
39675;DHT22;27790;50.840;4.386;2024-03-02T03:12:54;7.60;99.90
39675;DHT22;27790;50.840;4.386;2024-03-02T03:15:21;7.70;99.90
39675;DHT22;27790;50.840;4.386;2024-03-02T03:17:47;7.50;99.90
39675;DHT22;27790;50.840;4.386;2024-03-02T03:20:12;7.50;99.90
39675;DHT22;27790;50.840;4.386;2024-03-02T03:22:38;7.50;99.90
39675;DHT22;27790;50.840;4.386;2024-03-02T03:25:04;7.50;99.90
39675;DHT22;27790;50.840;4.386;2024-03-02T03:27:30;7.40;99.90
39675;DHT22;27790;50.840;4.386;2024-03-02T03:29:56;7.40;99.90
39675;DHT22;27790;50.840;4.386;2024-03-02T03:32:22;7.40;99.90
39675;DHT22;27790;50.840;4.386;2024-03-02T03:34:47;7.50;99.90
39675;DHT22;27790;50.840;4.386;2024-03-02T03:37:14;7.70;99.90
39675;DHT22;27790;50.840;4.386;2024-03-02T03:39:39;7.80;99.90
39675;DHT22;27790;50.840;4.386;2024-03-02T03:42:05;7.90;99.90
39675;DHT22;27790;50.840;4.386;2024-03-02T03:44:31;8.00;99.90
39675;DHT22;27790;50.840;4.386;2024-03-02T03:46:57;8.10;99.90
39675;DHT22;27790;50.840;4.386;2024-03-02T03:49:23;8.00;99.90
39675;DHT22;27790;50.840;4.386;2024-03-02T03:51:48;8.10;99.90
39675;DHT22;27790;50.840;4.386;2024-03-02T03:54:14;8.10;99.90
39675;DHT22;27790;50.840;4.386;2024-03-02T03:56:39;8.10;99.90
39675;DHT22;27790;50.840;4.386;2024-03-02T03:59:05;8.00;99.90
39675;DHT22;27790;50.840;4.386;2024-03-02T04:01:31;8.10;99.90
39675;DHT22;27790;50.840;4.386;2024-03-02T04:03:57;8.20;99.90
39675;DHT22;27790;50.840;4.386;2024-03-02T04:06:23;8.10;99.90
39675;DHT22;27790;50.840;4.386;2024-03-02T04:08:48;8.10;99.90
39675;DHT22;27790;50.840;4.386;2024-03-02T04:11:14;8.20;99.90
39675;DHT22;27790;50.840;4.386;2024-03-02T04:13:40;8.10;99.90
39675;DHT22;27790;50.840;4.386;2024-03-02T04:16:05;8.00;99.90
39675;DHT22;27790;50.840;4.386;2024-03-02T04:18:31;7.90;99.90
39675;DHT22;27790;50.840;4.386;2024-03-02T04:21:00;7.90;99.90
39675;DHT22;27790;50.840;4.386;2024-03-02T04:23:29;7.70;99.90
39675;DHT22;27790;50.840;4.386;2024-03-02T04:25:54;7.70;99.90
39675;DHT22;27790;50.840;4.386;2024-03-02T04:28:20;7.70;99.90
39675;DHT22;27790;50.840;4.386;2024-03-02T04:30:45;7.60;99.90
39675;DHT22;27790;50.840;4.386;2024-03-02T04:33:11;7.60;99.90
39675;DHT22;27790;50.840;4.386;2024-03-02T04:35:37;7.40;99.90
39675;DHT22;27790;50.840;4.386;2024-03-02T04:38:03;7.50;99.90
39675;DHT22;27790;50.840;4.386;2024-03-02T04:40:28;7.60;99.90
39675;DHT22;27790;50.840;4.386;2024-03-02T04:42:54;7.50;99.90
39675;DHT22;27790;50.840;4.386;2024-03-02T04:45:19;7.50;99.90
39675;DHT22;27790;50.840;4.386;2024-03-02T04:47:45;7.60;99.90
39675;DHT22;27790;50.840;4.386;2024-03-02T04:50:11;7.60;99.90
39675;DHT22;27790;50.840;4.386;2024-03-02T04:52:36;7.50;99.90
39675;DHT22;27790;50.840;4.386;2024-03-02T04:55:02;7.50;99.90
39675;DHT22;27790;50.840;4.386;2024-03-02T04:57:50;7.50;99.90
39675;DHT22;27790;50.840;4.386;2024-03-02T05:00:20;7.50;99.90
39675;DHT22;27790;50.840;4.386;2024-03-02T05:02:46;7.50;99.90
39675;DHT22;27790;50.840;4.386;2024-03-02T05:05:11;7.50;99.90
39675;DHT22;27790;50.840;4.386;2024-03-02T05:07:37;7.60;99.90
39675;DHT22;27790;50.840;4.386;2024-03-02T05:10:02;7.50;99.90
39675;DHT22;27790;50.840;4.386;2024-03-02T05:12:28;7.50;99.90
39675;DHT22;27790;50.840;4.386;2024-03-02T05:15:10;7.50;99.90
39675;DHT22;27790;50.840;4.386;2024-03-02T05:17:36;7.50;99.90
39675;DHT22;27790;50.840;4.386;2024-03-02T05:20:03;7.40;99.90
39675;DHT22;27790;50.840;4.386;2024-03-02T05:22:29;7.40;99.90
39675;DHT22;27790;50.840;4.386;2024-03-02T05:24:54;7.40;99.90
39675;DHT22;27790;50.840;4.386;2024-03-02T05:27:20;7.30;99.90
39675;DHT22;27790;50.840;4.386;2024-03-02T05:29:46;7.20;99.90
39675;DHT22;27790;50.840;4.386;2024-03-02T05:32:12;7.20;99.90
39675;DHT22;27790;50.840;4.386;2024-03-02T05:34:38;7.20;99.90
39675;DHT22;27790;50.840;4.386;2024-03-02T05:37:03;7.20;99.90
39675;DHT22;27790;50.840;4.386;2024-03-02T05:39:29;7.20;99.90
39675;DHT22;27790;50.840;4.386;2024-03-02T05:41:54;7.20;99.90
39675;DHT22;27790;50.840;4.386;2024-03-02T05:44:20;7.10;99.90
39675;DHT22;27790;50.840;4.386;2024-03-02T05:46:46;7.10;99.90
39675;DHT22;27790;50.840;4.386;2024-03-02T05:49:11;7.00;99.90
39675;DHT22;27790;50.840;4.386;2024-03-02T05:51:37;6.90;99.90
39675;DHT22;27790;50.840;4.386;2024-03-02T05:54:03;6.90;99.90
39675;DHT22;27790;50.840;4.386;2024-03-02T05:56:28;7.00;99.90
39675;DHT22;27790;50.840;4.386;2024-03-02T05:58:54;7.00;99.90
39675;DHT22;27790;50.840;4.386;2024-03-02T06:01:44;7.00;99.90
39675;DHT22;27790;50.840;4.386;2024-03-02T06:04:10;7.10;99.90
39675;DHT22;27790;50.840;4.386;2024-03-02T06:06:36;7.00;99.90
39675;DHT22;27790;50.840;4.386;2024-03-02T06:09:03;6.90;99.90
39675;DHT22;27790;50.840;4.386;2024-03-02T06:11:39;7.00;99.90
39675;DHT22;27790;50.840;4.386;2024-03-02T06:14:08;7.00;99.90
39675;DHT22;27790;50.840;4.386;2024-03-02T06:16:34;7.00;99.90
39675;DHT22;27790;50.840;4.386;2024-03-02T06:19:00;7.10;99.90
39675;DHT22;27790;50.840;4.386;2024-03-02T06:21:26;7.00;99.90
39675;DHT22;27790;50.840;4.386;2024-03-02T06:23:52;7.00;99.90
39675;DHT22;27790;50.840;4.386;2024-03-02T06:26:18;7.10;99.90
39675;DHT22;27790;50.840;4.386;2024-03-02T06:28:44;7.10;99.90
39675;DHT22;27790;50.840;4.386;2024-03-02T06:31:10;7.00;99.90
39675;DHT22;27790;50.840;4.386;2024-03-02T06:33:35;7.00;99.90
39675;DHT22;27790;50.840;4.386;2024-03-02T06:36:01;7.00;99.90
39675;DHT22;27790;50.840;4.386;2024-03-02T06:38:27;7.10;99.90
39675;DHT22;27790;50.840;4.386;2024-03-02T06:40:52;7.00;99.90
39675;DHT22;27790;50.840;4.386;2024-03-02T06:43:18;7.10;99.90
39675;DHT22;27790;50.840;4.386;2024-03-02T06:45:44;7.10;99.90
39675;DHT22;27790;50.840;4.386;2024-03-02T06:48:09;7.20;99.90
39675;DHT22;27790;50.840;4.386;2024-03-02T06:50:35;7.20;99.90
39675;DHT22;27790;50.840;4.386;2024-03-02T06:53:00;7.20;99.90
39675;DHT22;27790;50.840;4.386;2024-03-02T06:55:26;7.20;99.90
39675;DHT22;27790;50.840;4.386;2024-03-02T06:57:51;7.20;99.90
39675;DHT22;27790;50.840;4.386;2024-03-02T07:00:18;7.30;99.90
39675;DHT22;27790;50.840;4.386;2024-03-02T07:02:45;7.20;99.90
39675;DHT22;27790;50.840;4.386;2024-03-02T07:05:11;7.30;99.90
39675;DHT22;27790;50.840;4.386;2024-03-02T07:07:37;7.30;99.90
39675;DHT22;27790;50.840;4.386;2024-03-02T07:10:04;7.30;99.90
39675;DHT22;27790;50.840;4.386;2024-03-02T07:12:30;7.40;99.90
39675;DHT22;27790;50.840;4.386;2024-03-02T07:14:56;7.40;99.90
39675;DHT22;27790;50.840;4.386;2024-03-02T07:17:28;7.60;99.90
39675;DHT22;27790;50.840;4.386;2024-03-02T07:19:53;7.60;99.90
39675;DHT22;27790;50.840;4.386;2024-03-02T07:22:19;7.70;99.90
39675;DHT22;27790;50.840;4.386;2024-03-02T07:24:45;7.70;99.90
39675;DHT22;27790;50.840;4.386;2024-03-02T07:27:13;7.80;99.90
39675;DHT22;27790;50.840;4.386;2024-03-02T07:29:39;7.80;99.90
39675;DHT22;27790;50.840;4.386;2024-03-02T07:32:06;7.90;99.90
39675;DHT22;27790;50.840;4.386;2024-03-02T07:34:32;8.00;99.90
39675;DHT22;27790;50.840;4.386;2024-03-02T07:36:57;8.10;99.90
39675;DHT22;27790;50.840;4.386;2024-03-02T07:39:23;8.20;99.90
39675;DHT22;27790;50.840;4.386;2024-03-02T07:41:49;8.30;99.90
39675;DHT22;27790;50.840;4.386;2024-03-02T07:44:15;8.40;99.90
39675;DHT22;27790;50.840;4.386;2024-03-02T07:46:42;8.50;99.90
39675;DHT22;27790;50.840;4.386;2024-03-02T07:49:08;8.90;99.90
39675;DHT22;27790;50.840;4.386;2024-03-02T07:51:34;9.00;99.90
39675;DHT22;27790;50.840;4.386;2024-03-02T07:53:59;9.20;99.90
39675;DHT22;27790;50.840;4.386;2024-03-02T07:56:25;9.50;99.90
39675;DHT22;27790;50.840;4.386;2024-03-02T07:58:51;9.80;99.90
39675;DHT22;27790;50.840;4.386;2024-03-02T08:01:16;10.10;99.90
39675;DHT22;27790;50.840;4.386;2024-03-02T08:03:43;10.50;99.90
39675;DHT22;27790;50.840;4.386;2024-03-02T08:06:13;10.70;99.90
39675;DHT22;27790;50.840;4.386;2024-03-02T08:08:40;11.20;99.90
39675;DHT22;27790;50.840;4.386;2024-03-02T08:11:06;11.80;99.90
39675;DHT22;27790;50.840;4.386;2024-03-02T08:13:31;12.10;98.80
39675;DHT22;27790;50.840;4.386;2024-03-02T08:15:57;12.40;98.50
39675;DHT22;27790;50.840;4.386;2024-03-02T08:18:23;12.70;98.00
39675;DHT22;27790;50.840;4.386;2024-03-02T08:20:49;12.80;97.90
39675;DHT22;27790;50.840;4.386;2024-03-02T08:23:14;12.90;97.20
39675;DHT22;27790;50.840;4.386;2024-03-02T08:25:40;13.10;96.80
39675;DHT22;27790;50.840;4.386;2024-03-02T08:28:05;13.20;96.80
39675;DHT22;27790;50.840;4.386;2024-03-02T08:30:31;13.50;96.50
39675;DHT22;27790;50.840;4.386;2024-03-02T08:32:57;13.80;95.80
39675;DHT22;27790;50.840;4.386;2024-03-02T08:35:22;13.90;95.00
39675;DHT22;27790;50.840;4.386;2024-03-02T08:37:48;13.70;95.40
39675;DHT22;27790;50.840;4.386;2024-03-02T08:40:14;14.00;95.40
39675;DHT22;27790;50.840;4.386;2024-03-02T08:42:40;14.10;94.60
39675;DHT22;27790;50.840;4.386;2024-03-02T08:45:07;14.20;94.50
39675;DHT22;27790;50.840;4.386;2024-03-02T08:47:33;14.00;94.60
39675;DHT22;27790;50.840;4.386;2024-03-02T08:49:59;14.10;94.60
39675;DHT22;27790;50.840;4.386;2024-03-02T08:52:26;14.30;94.40
39675;DHT22;27790;50.840;4.386;2024-03-02T08:54:51;14.40;93.80
39675;DHT22;27790;50.840;4.386;2024-03-02T08:57:17;14.60;93.90
39675;DHT22;27790;50.840;4.386;2024-03-02T08:59:42;14.60;93.60
39675;DHT22;27790;50.840;4.386;2024-03-02T09:02:09;14.70;93.40
39675;DHT22;27790;50.840;4.386;2024-03-02T09:04:35;15.20;93.40
39675;DHT22;27790;50.840;4.386;2024-03-02T09:07:01;15.00;92.90
39675;DHT22;27790;50.840;4.386;2024-03-02T09:09:26;15.00;93.30
39675;DHT22;27790;50.840;4.386;2024-03-02T09:11:52;14.60;92.50
39675;DHT22;27790;50.840;4.386;2024-03-02T09:14:20;14.10;93.10
39675;DHT22;27790;50.840;4.386;2024-03-02T09:16:46;13.50;93.50
39675;DHT22;27790;50.840;4.386;2024-03-02T09:19:12;13.00;94.20
39675;DHT22;27790;50.840;4.386;2024-03-02T09:21:37;12.60;94.90
39675;DHT22;27790;50.840;4.386;2024-03-02T09:24:03;12.30;95.00
39675;DHT22;27790;50.840;4.386;2024-03-02T09:26:29;12.00;95.50
39675;DHT22;27790;50.840;4.386;2024-03-02T09:28:55;11.90;96.00
39675;DHT22;27790;50.840;4.386;2024-03-02T09:31:20;11.60;96.00
39675;DHT22;27790;50.840;4.386;2024-03-02T09:33:46;11.40;96.20
39675;DHT22;27790;50.840;4.386;2024-03-02T09:36:19;11.30;97.20
39675;DHT22;27790;50.840;4.386;2024-03-02T09:38:44;11.30;97.10
39675;DHT22;27790;50.840;4.386;2024-03-02T09:41:10;11.20;96.90
39675;DHT22;27790;50.840;4.386;2024-03-02T09:43:36;11.20;97.20
39675;DHT22;27790;50.840;4.386;2024-03-02T09:46:01;11.20;96.90
39675;DHT22;27790;50.840;4.386;2024-03-02T09:48:27;11.20;97.10
39675;DHT22;27790;50.840;4.386;2024-03-02T09:50:52;11.20;97.20
39675;DHT22;27790;50.840;4.386;2024-03-02T09:53:18;11.10;97.40
39675;DHT22;27790;50.840;4.386;2024-03-02T09:55:47;11.20;97.40
39675;DHT22;27790;50.840;4.386;2024-03-02T09:58:12;11.20;97.40
39675;DHT22;27790;50.840;4.386;2024-03-02T10:00:38;11.40;97.00
39675;DHT22;27790;50.840;4.386;2024-03-02T10:03:04;11.40;97.10
39675;DHT22;27790;50.840;4.386;2024-03-02T10:05:32;11.40;97.30
39675;DHT22;27790;50.840;4.386;2024-03-02T10:08:02;11.50;97.20
39675;DHT22;27790;50.840;4.386;2024-03-02T10:10:39;11.50;96.80
39675;DHT22;27790;50.840;4.386;2024-03-02T10:13:12;11.80;96.40
39675;DHT22;27790;50.840;4.386;2024-03-02T10:15:39;11.90;96.20
39675;DHT22;27790;50.840;4.386;2024-03-02T10:18:09;11.80;96.50
39675;DHT22;27790;50.840;4.386;2024-03-02T10:20:39;12.00;96.50
39675;DHT22;27790;50.840;4.386;2024-03-02T10:23:17;12.20;96.20
39675;DHT22;27790;50.840;4.386;2024-03-02T10:25:44;12.40;95.90
39675;DHT22;27790;50.840;4.386;2024-03-02T10:28:10;12.70;95.60
39675;DHT22;27790;50.840;4.386;2024-03-02T10:30:36;12.70;94.80
39675;DHT22;27790;50.840;4.386;2024-03-02T10:33:02;12.60;95.10
39675;DHT22;27790;50.840;4.386;2024-03-02T10:35:28;12.60;94.80
39675;DHT22;27790;50.840;4.386;2024-03-02T10:37:58;12.60;95.00
39675;DHT22;27790;50.840;4.386;2024-03-02T10:40:24;12.80;95.00
39675;DHT22;27790;50.840;4.386;2024-03-02T10:42:50;12.90;95.00
39675;DHT22;27790;50.840;4.386;2024-03-02T10:45:20;12.90;95.00
39675;DHT22;27790;50.840;4.386;2024-03-02T10:47:47;12.80;94.80
39675;DHT22;27790;50.840;4.386;2024-03-02T10:50:12;13.00;94.50
39675;DHT22;27790;50.840;4.386;2024-03-02T10:52:38;13.20;94.00
39675;DHT22;27790;50.840;4.386;2024-03-02T10:55:05;13.30;93.80
39675;DHT22;27790;50.840;4.386;2024-03-02T10:57:52;13.20;94.00
39675;DHT22;27790;50.840;4.386;2024-03-02T11:00:19;13.20;93.20
39675;DHT22;27790;50.840;4.386;2024-03-02T11:02:51;13.20;93.30
39675;DHT22;27790;50.840;4.386;2024-03-02T11:05:26;13.20;93.50
39675;DHT22;27790;50.840;4.386;2024-03-02T11:08:00;13.20;93.80
39675;DHT22;27790;50.840;4.386;2024-03-02T11:10:33;13.20;93.40
39675;DHT22;27790;50.840;4.386;2024-03-02T11:13:02;12.90;94.80
39675;DHT22;27790;50.840;4.386;2024-03-02T11:15:30;13.00;94.30
39675;DHT22;27790;50.840;4.386;2024-03-02T11:17:57;13.20;94.00
39675;DHT22;27790;50.840;4.386;2024-03-02T11:20:23;13.30;93.50
39675;DHT22;27790;50.840;4.386;2024-03-02T11:22:50;13.30;93.50
39675;DHT22;27790;50.840;4.386;2024-03-02T11:25:26;13.20;93.60
39675;DHT22;27790;50.840;4.386;2024-03-02T11:33:03;13.70;93.50
39675;DHT22;27790;50.840;4.386;2024-03-02T11:35:42;13.80;93.50
39675;DHT22;27790;50.840;4.386;2024-03-02T11:38:09;14.00;92.90
39675;DHT22;27790;50.840;4.386;2024-03-02T11:40:35;13.90;92.90
39675;DHT22;27790;50.840;4.386;2024-03-02T11:43:01;14.00;93.00
39675;DHT22;27790;50.840;4.386;2024-03-02T11:45:27;14.10;93.00
39675;DHT22;27790;50.840;4.386;2024-03-02T11:47:57;14.10;92.90
39675;DHT22;27790;50.840;4.386;2024-03-02T11:50:42;14.30;92.80
39675;DHT22;27790;50.840;4.386;2024-03-02T11:53:10;14.40;93.10
39675;DHT22;27790;50.840;4.386;2024-03-02T11:55:37;14.40;92.80
39675;DHT22;27790;50.840;4.386;2024-03-02T11:58:03;14.20;93.20
39675;DHT22;27790;50.840;4.386;2024-03-02T12:00:29;14.20;93.00
39675;DHT22;27790;50.840;4.386;2024-03-02T12:03:06;14.00;93.30
39675;DHT22;27790;50.840;4.386;2024-03-02T12:05:32;13.70;93.10
39675;DHT22;27790;50.840;4.386;2024-03-02T12:08:00;13.80;93.20
39675;DHT22;27790;50.840;4.386;2024-03-02T12:10:26;13.80;93.30
39675;DHT22;27790;50.840;4.386;2024-03-02T12:13:10;14.00;93.40
39675;DHT22;27790;50.840;4.386;2024-03-02T12:15:37;14.10;93.40
39675;DHT22;27790;50.840;4.386;2024-03-02T12:18:03;14.10;93.00
39675;DHT22;27790;50.840;4.386;2024-03-02T12:20:31;13.80;92.80
39675;DHT22;27790;50.840;4.386;2024-03-02T12:23:01;14.00;92.80
39675;DHT22;27790;50.840;4.386;2024-03-02T12:25:28;14.10;92.70
39675;DHT22;27790;50.840;4.386;2024-03-02T12:27:55;14.10;93.00
39675;DHT22;27790;50.840;4.386;2024-03-02T12:30:22;14.30;93.00
39675;DHT22;27790;50.840;4.386;2024-03-02T12:32:48;14.30;92.50
39675;DHT22;27790;50.840;4.386;2024-03-02T12:35:14;14.10;92.90
39675;DHT22;27790;50.840;4.386;2024-03-02T12:37:49;14.10;93.10
39675;DHT22;27790;50.840;4.386;2024-03-02T12:40:16;13.60;93.60
39675;DHT22;27790;50.840;4.386;2024-03-02T12:42:44;13.50;93.60
39675;DHT22;27790;50.840;4.386;2024-03-02T12:45:10;13.40;94.10
39675;DHT22;27790;50.840;4.386;2024-03-02T12:47:36;13.50;93.60
39675;DHT22;27790;50.840;4.386;2024-03-02T12:50:05;13.30;94.30
39675;DHT22;27790;50.840;4.386;2024-03-02T12:52:32;13.30;94.20
39675;DHT22;27790;50.840;4.386;2024-03-02T12:54:59;13.50;94.50
39675;DHT22;27790;50.840;4.386;2024-03-02T12:57:26;13.70;94.00
39675;DHT22;27790;50.840;4.386;2024-03-02T12:59:54;13.90;93.70
39675;DHT22;27790;50.840;4.386;2024-03-02T13:02:22;13.90;93.40
39675;DHT22;27790;50.840;4.386;2024-03-02T13:04:53;13.80;93.90
39675;DHT22;27790;50.840;4.386;2024-03-02T13:07:24;13.90;93.00
39675;DHT22;27790;50.840;4.386;2024-03-02T13:09:50;13.90;93.10
39675;DHT22;27790;50.840;4.386;2024-03-02T13:12:16;13.60;93.20
39675;DHT22;27790;50.840;4.386;2024-03-02T13:14:42;13.50;93.60
39675;DHT22;27790;50.840;4.386;2024-03-02T13:17:10;13.60;93.90
39675;DHT22;27790;50.840;4.386;2024-03-02T13:19:50;13.70;93.20
39675;DHT22;27790;50.840;4.386;2024-03-02T13:22:15;13.60;93.20
39675;DHT22;27790;50.840;4.386;2024-03-02T13:24:41;13.60;93.50
39675;DHT22;27790;50.840;4.386;2024-03-02T13:27:08;13.70;93.90
39675;DHT22;27790;50.840;4.386;2024-03-02T13:29:33;13.80;93.70
39675;DHT22;27790;50.840;4.386;2024-03-02T13:31:59;13.90;93.60
39675;DHT22;27790;50.840;4.386;2024-03-02T13:34:24;13.90;93.40
39675;DHT22;27790;50.840;4.386;2024-03-02T13:36:50;13.90;93.30
39675;DHT22;27790;50.840;4.386;2024-03-02T13:39:16;13.90;93.40
39675;DHT22;27790;50.840;4.386;2024-03-02T13:41:41;14.10;93.40
39675;DHT22;27790;50.840;4.386;2024-03-02T13:44:07;14.00;93.20
39675;DHT22;27790;50.840;4.386;2024-03-02T13:46:33;14.10;93.10
39675;DHT22;27790;50.840;4.386;2024-03-02T13:48:58;14.10;93.50
39675;DHT22;27790;50.840;4.386;2024-03-02T13:51:24;14.20;93.30
39675;DHT22;27790;50.840;4.386;2024-03-02T13:53:50;14.30;93.00
39675;DHT22;27790;50.840;4.386;2024-03-02T13:56:16;14.20;93.40
39675;DHT22;27790;50.840;4.386;2024-03-02T13:58:42;14.30;93.50
39675;DHT22;27790;50.840;4.386;2024-03-02T14:01:09;14.30;93.50
39675;DHT22;27790;50.840;4.386;2024-03-02T14:03:34;14.30;93.30
39675;DHT22;27790;50.840;4.386;2024-03-02T14:06:00;14.30;93.70
39675;DHT22;27790;50.840;4.386;2024-03-02T14:08:28;14.40;93.90
39675;DHT22;27790;50.840;4.386;2024-03-02T14:10:55;14.30;93.20
39675;DHT22;27790;50.840;4.386;2024-03-02T14:13:22;14.30;93.40
39675;DHT22;27790;50.840;4.386;2024-03-02T14:15:48;14.30;93.40
39675;DHT22;27790;50.840;4.386;2024-03-02T14:18:14;14.30;93.40
39675;DHT22;27790;50.840;4.386;2024-03-02T14:20:39;13.80;93.90
39675;DHT22;27790;50.840;4.386;2024-03-02T14:23:05;13.80;94.50
39675;DHT22;27790;50.840;4.386;2024-03-02T14:25:30;13.80;95.20
39675;DHT22;27790;50.840;4.386;2024-03-02T14:27:58;13.70;95.50
39675;DHT22;27790;50.840;4.386;2024-03-02T14:30:24;13.60;96.00
39675;DHT22;27790;50.840;4.386;2024-03-02T14:32:50;13.60;96.10
39675;DHT22;27790;50.840;4.386;2024-03-02T14:35:16;13.60;96.20
39675;DHT22;27790;50.840;4.386;2024-03-02T14:37:42;13.80;95.90
39675;DHT22;27790;50.840;4.386;2024-03-02T14:40:08;13.60;96.20
39675;DHT22;27790;50.840;4.386;2024-03-02T14:42:35;13.50;96.20
39675;DHT22;27790;50.840;4.386;2024-03-02T14:45:00;13.60;96.10
39675;DHT22;27790;50.840;4.386;2024-03-02T14:47:29;13.60;96.60
39675;DHT22;27790;50.840;4.386;2024-03-02T14:49:55;13.60;96.20
39675;DHT22;27790;50.840;4.386;2024-03-02T14:52:20;13.80;96.20
39675;DHT22;27790;50.840;4.386;2024-03-02T14:54:46;13.80;96.20
39675;DHT22;27790;50.840;4.386;2024-03-02T14:57:12;13.90;95.80
39675;DHT22;27790;50.840;4.386;2024-03-02T14:59:37;13.90;96.20
39675;DHT22;27790;50.840;4.386;2024-03-02T15:02:03;13.90;95.90
39675;DHT22;27790;50.840;4.386;2024-03-02T15:04:29;13.90;96.00
39675;DHT22;27790;50.840;4.386;2024-03-02T15:06:55;13.90;95.80
39675;DHT22;27790;50.840;4.386;2024-03-02T15:09:20;13.90;95.50
39675;DHT22;27790;50.840;4.386;2024-03-02T15:11:46;13.90;95.70
39675;DHT22;27790;50.840;4.386;2024-03-02T15:14:11;13.80;95.90
39675;DHT22;27790;50.840;4.386;2024-03-02T15:16:37;13.60;96.30
39675;DHT22;27790;50.840;4.386;2024-03-02T15:19:03;13.40;97.30
39675;DHT22;27790;50.840;4.386;2024-03-02T15:21:28;13.40;97.50
39675;DHT22;27790;50.840;4.386;2024-03-02T15:23:54;13.40;97.50
39675;DHT22;27790;50.840;4.386;2024-03-02T15:28:45;13.30;98.10
39675;DHT22;27790;50.840;4.386;2024-03-02T15:31:10;13.40;98.20
39675;DHT22;27790;50.840;4.386;2024-03-02T15:33:36;13.50;98.00
39675;DHT22;27790;50.840;4.386;2024-03-02T15:36:01;13.40;97.90
39675;DHT22;27790;50.840;4.386;2024-03-02T15:38:27;13.40;97.80
39675;DHT22;27790;50.840;4.386;2024-03-02T15:40:52;13.40;97.90
39675;DHT22;27790;50.840;4.386;2024-03-02T15:43:18;13.40;98.10
39675;DHT22;27790;50.840;4.386;2024-03-02T15:45:44;13.40;98.30